createdAt,value
2023-07-06T00:00:35.780Z,95153.00
2023-07-06T00:01:35.805Z,95159.00
2023-07-06T00:02:35.891Z,95161.00
2023-07-06T00:03:35.953Z,95165.00
2023-07-06T00:04:35.948Z,95165.00
2023-07-06T00:05:35.904Z,95167.00
2023-07-06T00:06:35.922Z,95167.00
2023-07-06T00:07:35.927Z,95168.00
2023-07-06T00:08:35.975Z,95168.00
2023-07-06T00:09:36.057Z,95168.00
2023-07-06T00:10:36.218Z,95167.00
2023-07-06T00:11:36.279Z,95170.00
2023-07-06T00:12:36.261Z,95168.00
2023-07-06T00:13:36.445Z,95167.00
2023-07-06T00:14:36.481Z,95165.00
2023-07-06T00:15:36.475Z,95167.00
2023-07-06T00:16:36.565Z,95157.00
2023-07-06T00:17:36.536Z,95159.00
2023-07-06T00:18:36.507Z,95159.00
2023-07-06T00:19:36.499Z,95157.00
2023-07-06T00:20:36.794Z,95159.00
2023-07-06T00:21:36.586Z,95155.00
2023-07-06T00:22:36.580Z,95153.00
2023-07-06T00:23:36.534Z,95151.00
2023-07-06T00:24:36.570Z,95143.00
2023-07-06T00:25:36.540Z,95143.00
2023-07-06T00:26:36.663Z,95143.00
2023-07-06T00:27:36.807Z,95141.00
2023-07-06T00:28:36.849Z,95141.00
2023-07-06T00:29:37.011Z,95139.00
2023-07-06T00:30:37.058Z,95139.00
2023-07-06T00:31:37.148Z,95139.00
2023-07-06T00:32:37.081Z,95139.00
2023-07-06T00:33:37.078Z,95141.00
2023-07-06T00:34:37.079Z,95143.00
2023-07-06T00:35:37.156Z,95143.00
2023-07-06T00:36:37.261Z,95147.00
2023-07-06T00:37:37.218Z,95145.00
2023-07-06T00:38:37.245Z,95145.00
2023-07-06T00:39:37.267Z,95145.00
2023-07-06T00:40:37.268Z,95145.00
2023-07-06T00:41:37.278Z,95145.00
2023-07-06T00:42:39.103Z,95143.00
2023-07-06T00:43:38.330Z,95147.00
2023-07-06T00:44:37.379Z,95145.00
2023-07-06T00:45:37.416Z,95145.00
2023-07-06T00:46:37.390Z,95145.00
2023-07-06T00:47:37.397Z,95147.00
2023-07-06T00:48:37.331Z,95147.00
2023-07-06T00:49:37.303Z,95147.00
2023-07-06T00:50:37.295Z,95151.00
2023-07-06T00:51:37.281Z,95147.00
2023-07-06T00:52:37.314Z,95149.00
2023-07-06T00:53:37.265Z,95149.00
2023-07-06T00:54:37.271Z,95149.00
2023-07-06T00:55:37.281Z,95149.00
2023-07-06T00:56:37.246Z,95149.00
2023-07-06T00:57:37.222Z,95147.00
2023-07-06T00:58:37.256Z,95147.00
2023-07-06T00:59:37.280Z,95143.00
2023-07-06T01:00:37.270Z,95143.00
2023-07-06T01:01:37.389Z,95143.00
2023-07-06T01:02:38.195Z,95143.00
2023-07-06T01:03:37.405Z,95145.00
2023-07-06T01:04:37.326Z,95147.00
2023-07-06T01:05:37.340Z,95151.00
2023-07-06T01:06:37.422Z,95149.00
2023-07-06T01:07:37.418Z,95151.00
2023-07-06T01:08:37.522Z,95151.00
2023-07-06T01:09:37.541Z,95151.00
2023-07-06T01:10:37.551Z,95151.00
2023-07-06T01:11:37.598Z,95153.00
2023-07-06T01:12:37.542Z,95151.00
2023-07-06T01:13:37.628Z,95151.00
2023-07-06T01:14:37.678Z,95149.00
2023-07-06T01:15:37.781Z,95149.00
2023-07-06T01:16:37.778Z,95149.00
2023-07-06T01:17:37.729Z,95147.00
2023-07-06T01:18:37.731Z,95147.00
2023-07-06T01:19:38.087Z,95147.00
2023-07-06T01:20:37.946Z,95145.00
2023-07-06T01:21:38.090Z,95141.00
2023-07-06T01:22:38.151Z,95147.00
2023-07-06T01:23:38.230Z,95145.00
2023-07-06T01:24:38.284Z,95143.00
2023-07-06T01:25:38.301Z,95147.00
2023-07-06T01:26:38.304Z,95149.00
2023-07-06T01:27:38.344Z,95147.00
2023-07-06T01:28:38.350Z,95147.00
2023-07-06T01:29:38.517Z,95143.00
2023-07-06T01:30:38.652Z,95143.00
2023-07-06T01:31:38.540Z,95139.00
2023-07-06T01:32:38.785Z,95135.00
2023-07-06T01:33:38.557Z,95137.00
2023-07-06T01:34:38.519Z,95133.00
2023-07-06T01:35:38.505Z,95123.00
2023-07-06T01:36:38.574Z,95133.00
2023-07-06T01:37:38.610Z,95121.00
2023-07-06T01:38:38.653Z,95121.00
2023-07-06T01:39:39.044Z,95123.00
2023-07-06T01:40:38.675Z,95123.00
2023-07-06T01:41:38.681Z,95121.00
2023-07-06T01:42:38.713Z,95123.00
2023-07-06T01:43:38.728Z,95123.00
2023-07-06T01:44:38.724Z,95125.00
2023-07-06T01:45:38.848Z,95123.00
2023-07-06T01:46:38.862Z,95123.00
2023-07-06T01:47:38.962Z,95125.00
2023-07-06T01:48:38.862Z,95125.00
2023-07-06T01:49:38.903Z,95121.00
2023-07-06T01:50:38.932Z,95123.00
2023-07-06T01:51:38.967Z,95123.00
2023-07-06T01:52:38.996Z,95125.00
2023-07-06T01:53:39.172Z,95135.00
2023-07-06T01:54:39.626Z,95135.00
2023-07-06T01:55:39.127Z,95137.00
2023-07-06T01:56:39.073Z,95137.00
2023-07-06T01:57:51.630Z,95137.00
2023-07-06T01:58:40.054Z,95137.00
2023-07-06T01:59:39.077Z,95137.00
2023-07-06T02:00:39.138Z,95135.00
2023-07-06T02:01:39.012Z,95135.00
2023-07-06T02:02:39.127Z,95137.00
2023-07-06T02:03:39.032Z,95137.00
2023-07-06T02:04:39.044Z,95137.00
2023-07-06T02:05:39.084Z,95125.00
2023-07-06T02:06:39.087Z,95133.00
2023-07-06T02:07:39.395Z,95133.00
2023-07-06T02:08:39.000Z,95125.00
2023-07-06T02:09:38.996Z,95125.00
2023-07-06T02:10:39.002Z,95125.00
2023-07-06T02:11:38.984Z,95125.00
2023-07-06T02:12:39.005Z,95125.00
2023-07-06T02:13:38.955Z,95123.00
2023-07-06T02:14:38.933Z,95123.00
2023-07-06T02:15:38.954Z,95123.00
2023-07-06T02:16:39.107Z,95123.00
2023-07-06T02:17:39.059Z,95123.00
2023-07-06T02:18:38.968Z,95119.00
2023-07-06T02:19:38.976Z,95123.00
2023-07-06T02:20:39.657Z,95123.00
2023-07-06T02:21:38.940Z,95121.00
2023-07-06T02:22:38.901Z,95121.00
2023-07-06T02:23:38.976Z,95121.00
2023-07-06T02:24:39.021Z,95119.00
2023-07-06T02:25:39.018Z,95119.00
2023-07-06T02:26:39.118Z,95121.00
2023-07-06T02:27:39.074Z,95121.00
2023-07-06T02:28:39.146Z,95119.00
2023-07-06T02:29:39.095Z,95121.00
2023-07-06T02:30:39.185Z,95119.00
2023-07-06T02:31:39.161Z,95119.00
2023-07-06T02:32:39.225Z,95119.00
2023-07-06T02:33:39.177Z,95117.00
2023-07-06T02:34:39.222Z,95119.00
2023-07-06T02:35:39.192Z,95119.00
2023-07-06T02:36:39.292Z,95119.00
2023-07-06T02:37:39.691Z,95119.00
2023-07-06T02:38:39.294Z,95117.00
2023-07-06T02:39:39.422Z,95114.00
2023-07-06T02:40:39.403Z,95114.00
2023-07-06T02:41:39.381Z,95112.00
2023-07-06T02:42:39.447Z,95114.00
2023-07-06T02:43:39.460Z,95114.00
2023-07-06T02:44:39.506Z,95114.00
2023-07-06T02:45:39.509Z,95115.00
2023-07-06T02:46:39.617Z,95114.00
2023-07-06T02:47:40.095Z,95115.00
2023-07-06T02:48:39.590Z,95114.00
2023-07-06T02:49:39.701Z,95114.00
2023-07-06T02:50:39.649Z,95112.00
2023-07-06T02:51:39.677Z,95110.00
2023-07-06T02:52:39.724Z,95110.00
2023-07-06T02:53:39.825Z,95106.00
2023-07-06T02:54:39.769Z,95106.00
2023-07-06T02:55:39.727Z,95104.00
2023-07-06T02:56:39.789Z,95102.00
2023-07-06T02:57:39.798Z,95100.00
2023-07-06T02:58:39.874Z,95100.00
2023-07-06T02:59:39.853Z,95100.00
2023-07-06T03:00:39.929Z,95098.00
2023-07-06T03:01:39.978Z,95100.00
2023-07-06T03:02:39.982Z,95098.00
2023-07-06T03:03:39.935Z,95096.00
2023-07-06T03:04:39.979Z,95094.00
2023-07-06T03:05:40.210Z,95096.00
2023-07-06T03:06:40.072Z,95094.00
2023-07-06T03:07:40.147Z,95094.00
2023-07-06T03:08:40.123Z,95092.00
2023-07-06T03:09:40.118Z,95090.00
2023-07-06T03:10:40.254Z,95090.00
2023-07-06T03:11:40.197Z,95088.00
2023-07-06T03:12:40.331Z,95082.00
2023-07-06T03:13:40.259Z,95080.00
2023-07-06T03:14:40.318Z,95080.00
2023-07-06T03:15:40.327Z,95080.00
2023-07-06T03:16:40.415Z,95080.00
2023-07-06T03:17:40.468Z,95080.00
2023-07-06T03:18:40.383Z,95082.00
2023-07-06T03:19:40.489Z,95080.00
2023-07-06T03:20:40.505Z,95082.00
2023-07-06T03:21:40.723Z,95080.00
2023-07-06T03:22:40.520Z,95082.00
2023-07-06T03:23:40.597Z,95082.00
2023-07-06T03:24:40.634Z,95082.00
2023-07-06T03:25:40.761Z,95084.00
2023-07-06T03:26:40.740Z,95082.00
2023-07-06T03:27:40.712Z,95082.00
2023-07-06T03:28:41.166Z,95084.00
2023-07-06T03:29:40.776Z,95086.00
2023-07-06T03:30:40.810Z,95086.00
2023-07-06T03:31:40.891Z,95088.00
2023-07-06T03:32:40.913Z,95092.00
2023-07-06T03:33:40.900Z,95094.00
2023-07-06T03:34:40.923Z,95096.00
2023-07-06T03:35:40.972Z,95100.00
2023-07-06T03:36:40.989Z,95100.00
2023-07-06T03:37:40.988Z,95104.00
2023-07-06T03:38:41.040Z,95104.00
2023-07-06T03:39:41.040Z,95110.00
2023-07-06T03:40:41.098Z,95112.00
2023-07-06T03:41:41.161Z,95112.00
2023-07-06T03:42:41.185Z,95114.00
2023-07-06T03:43:42.205Z,95114.00
2023-07-06T03:44:41.249Z,95115.00
2023-07-06T03:45:41.273Z,95115.00
2023-07-06T03:46:41.306Z,95115.00
2023-07-06T03:47:41.371Z,95121.00
2023-07-06T03:48:41.368Z,95121.00
2023-07-06T03:49:41.429Z,95123.00
2023-07-06T03:50:41.434Z,95125.00
2023-07-06T03:51:41.498Z,95135.00
2023-07-06T03:52:41.532Z,95135.00
2023-07-06T03:53:41.514Z,95137.00
2023-07-06T03:54:41.617Z,95139.00
2023-07-06T03:55:41.578Z,95139.00
2023-07-06T03:56:41.624Z,95139.00
2023-07-06T03:57:54.654Z,95141.00
2023-07-06T03:58:42.684Z,95141.00
2023-07-06T03:59:41.649Z,95141.00
2023-07-06T04:00:41.653Z,95143.00
2023-07-06T04:01:41.655Z,95143.00
2023-07-06T04:02:41.646Z,95145.00
2023-07-06T04:03:41.646Z,95141.00
2023-07-06T04:04:41.694Z,95147.00
2023-07-06T04:05:41.644Z,95149.00
2023-07-06T04:06:41.713Z,95141.00
2023-07-06T04:07:41.607Z,95141.00
2023-07-06T04:08:43.268Z,95141.00
2023-07-06T04:09:41.557Z,95139.00
2023-07-06T04:10:41.561Z,95145.00
2023-07-06T04:11:41.584Z,95143.00
2023-07-06T04:12:41.496Z,95141.00
2023-07-06T04:13:41.622Z,95137.00
2023-07-06T04:14:41.598Z,95135.00
2023-07-06T04:15:41.729Z,95135.00
2023-07-06T04:16:41.781Z,95135.00
2023-07-06T04:17:41.980Z,95125.00
2023-07-06T04:18:41.708Z,95133.00
2023-07-06T04:19:41.778Z,95133.00
2023-07-06T04:20:41.841Z,95123.00
2023-07-06T04:21:41.843Z,95125.00
2023-07-06T04:22:41.900Z,95133.00
2023-07-06T04:23:43.945Z,95133.00
2023-07-06T04:24:41.935Z,95133.00
2023-07-06T04:25:41.937Z,95125.00
2023-07-06T04:26:41.878Z,95125.00
2023-07-06T04:27:42.058Z,95135.00
2023-07-06T04:28:41.966Z,95133.00
2023-07-06T04:29:41.893Z,95135.00
2023-07-06T04:30:41.862Z,95133.00
2023-07-06T04:31:41.950Z,95135.00
2023-07-06T04:32:41.894Z,95135.00
2023-07-06T04:33:41.887Z,95135.00
2023-07-06T04:34:41.839Z,95133.00
2023-07-06T04:35:41.839Z,95135.00
2023-07-06T04:36:41.859Z,95135.00
2023-07-06T04:37:41.899Z,95133.00
2023-07-06T04:38:41.845Z,95133.00
2023-07-06T04:39:41.852Z,95125.00
2023-07-06T04:40:41.825Z,95123.00
2023-07-06T04:41:41.772Z,95121.00
2023-07-06T04:42:41.791Z,95119.00
2023-07-06T04:43:41.790Z,95119.00
2023-07-06T04:44:41.760Z,95115.00
2023-07-06T04:45:41.786Z,95115.00
2023-07-06T04:46:41.795Z,95114.00
2023-07-06T04:47:41.872Z,95114.00
2023-07-06T04:48:41.713Z,95114.00
2023-07-06T04:49:41.795Z,95112.00
2023-07-06T04:50:41.826Z,95115.00
2023-07-06T04:51:41.741Z,95115.00
2023-07-06T04:52:41.712Z,95115.00
2023-07-06T04:53:41.751Z,95114.00
2023-07-06T04:54:41.710Z,95112.00
2023-07-06T04:55:41.689Z,95114.00
2023-07-06T04:56:41.671Z,95114.00
2023-07-06T04:57:41.678Z,95115.00
2023-07-06T04:58:41.788Z,95114.00
2023-07-06T04:59:41.692Z,95117.00
2023-07-06T05:00:41.758Z,95119.00
2023-07-06T05:01:41.659Z,95119.00
2023-07-06T05:02:41.707Z,95119.00
2023-07-06T05:03:41.687Z,95119.00
2023-07-06T05:04:41.634Z,95121.00
2023-07-06T05:05:42.079Z,95121.00
2023-07-06T05:06:41.640Z,95125.00
2023-07-06T05:07:41.605Z,95125.00
2023-07-06T05:08:41.642Z,95125.00
2023-07-06T05:09:41.633Z,95133.00
2023-07-06T05:10:41.656Z,95133.00
2023-07-06T05:11:41.635Z,95135.00
2023-07-06T05:12:41.585Z,95135.00
2023-07-06T05:13:41.897Z,95139.00
2023-07-06T05:14:41.748Z,95139.00
2023-07-06T05:15:41.544Z,95137.00
2023-07-06T05:16:41.669Z,95143.00
2023-07-06T05:17:41.604Z,95141.00
2023-07-06T05:18:41.576Z,95141.00
2023-07-06T05:19:41.551Z,95145.00
2023-07-06T05:20:41.593Z,95141.00
2023-07-06T05:21:41.554Z,95145.00
2023-07-06T05:22:41.645Z,95145.00
2023-07-06T05:23:41.656Z,95145.00
2023-07-06T05:24:41.677Z,95145.00
2023-07-06T05:25:41.680Z,95145.00
2023-07-06T05:26:41.743Z,95145.00
2023-07-06T05:27:41.792Z,95143.00
2023-07-06T05:28:41.788Z,95141.00
2023-07-06T05:29:41.872Z,95139.00
2023-07-06T05:30:41.867Z,95137.00
2023-07-06T05:31:41.869Z,95135.00
2023-07-06T05:32:42.015Z,95137.00
2023-07-06T05:33:41.985Z,95135.00
2023-07-06T05:34:42.005Z,95133.00
2023-07-06T05:35:42.018Z,95137.00
2023-07-06T05:36:42.063Z,95133.00
2023-07-06T05:37:42.034Z,95137.00
2023-07-06T05:38:42.174Z,95137.00
2023-07-06T05:39:42.181Z,95137.00
2023-07-06T05:40:42.156Z,95135.00
2023-07-06T05:41:42.265Z,95137.00
2023-07-06T05:42:42.211Z,95137.00
2023-07-06T05:43:42.205Z,95139.00
2023-07-06T05:44:42.276Z,95137.00
2023-07-06T05:45:42.275Z,95135.00
2023-07-06T05:46:42.329Z,95135.00
2023-07-06T05:47:42.363Z,95139.00
2023-07-06T05:48:42.349Z,95139.00
2023-07-06T05:49:42.403Z,95137.00
2023-07-06T05:50:42.455Z,95139.00
2023-07-06T05:51:42.454Z,95139.00
2023-07-06T05:52:42.469Z,95137.00
2023-07-06T05:53:42.482Z,95137.00
2023-07-06T05:54:42.541Z,95139.00
2023-07-06T05:55:42.532Z,95137.00
2023-07-06T05:56:42.563Z,95141.00
2023-07-06T05:57:42.598Z,95141.00
2023-07-06T05:58:42.597Z,95143.00
2023-07-06T05:59:42.691Z,95145.00
2023-07-06T06:00:42.689Z,95143.00
2023-07-06T06:01:42.715Z,95141.00
2023-07-06T06:02:42.708Z,95143.00
2023-07-06T06:03:42.732Z,95143.00
2023-07-06T06:04:42.688Z,95141.00
2023-07-06T06:05:42.751Z,95143.00
2023-07-06T06:06:42.760Z,95145.00
2023-07-06T06:07:42.782Z,95143.00
2023-07-06T06:08:42.849Z,95145.00
2023-07-06T06:09:43.267Z,95145.00
2023-07-06T06:10:42.802Z,95145.00
2023-07-06T06:11:42.866Z,95147.00
2023-07-06T06:12:42.856Z,95149.00
2023-07-06T06:13:43.007Z,95149.00
2023-07-06T06:14:42.948Z,95149.00
2023-07-06T06:15:42.940Z,95147.00
2023-07-06T06:16:43.024Z,95147.00
2023-07-06T06:17:43.003Z,95149.00
2023-07-06T06:18:43.993Z,95151.00
2023-07-06T06:19:43.061Z,95147.00
2023-07-06T06:20:43.065Z,95151.00
2023-07-06T06:21:43.052Z,95151.00
2023-07-06T06:22:43.124Z,95149.00
2023-07-06T06:23:43.102Z,95149.00
2023-07-06T06:24:43.113Z,95151.00
2023-07-06T06:25:43.151Z,95151.00
2023-07-06T06:26:43.209Z,95149.00
2023-07-06T06:27:43.294Z,95151.00
2023-07-06T06:28:43.181Z,95153.00
2023-07-06T06:29:43.271Z,95153.00
2023-07-06T06:30:43.249Z,95151.00
2023-07-06T06:31:43.384Z,95153.00
2023-07-06T06:32:43.510Z,95153.00
2023-07-06T06:33:43.401Z,95153.00
2023-07-06T06:34:43.472Z,95155.00
2023-07-06T06:35:43.470Z,95157.00
2023-07-06T06:36:43.484Z,95155.00
2023-07-06T06:37:43.480Z,95155.00
2023-07-06T06:38:43.636Z,95155.00
2023-07-06T06:39:43.690Z,95153.00
2023-07-06T06:40:43.700Z,95153.00
2023-07-06T06:41:43.694Z,95151.00
2023-07-06T06:42:43.695Z,95151.00
2023-07-06T06:43:43.644Z,95149.00
2023-07-06T06:44:43.721Z,95151.00
2023-07-06T06:45:43.769Z,95151.00
2023-07-06T06:46:43.831Z,95147.00
2023-07-06T06:47:43.909Z,95147.00
2023-07-06T06:48:43.932Z,95145.00
2023-07-06T06:49:43.955Z,95143.00
2023-07-06T06:50:43.955Z,95141.00
2023-07-06T06:51:44.005Z,95143.00
2023-07-06T06:52:44.053Z,95141.00
2023-07-06T06:53:44.047Z,95139.00
2023-07-06T06:54:44.120Z,95139.00
2023-07-06T06:55:44.204Z,95139.00
2023-07-06T06:56:44.144Z,95139.00
2023-07-06T06:57:44.201Z,95139.00
2023-07-06T06:58:45.089Z,95137.00
2023-07-06T06:59:44.215Z,95137.00
2023-07-06T07:00:44.210Z,95139.00
2023-07-06T07:01:44.332Z,95139.00
2023-07-06T07:02:44.571Z,95141.00
2023-07-06T07:03:44.402Z,95139.00
2023-07-06T07:04:44.349Z,95141.00
2023-07-06T07:05:44.420Z,95143.00
2023-07-06T07:06:44.486Z,95141.00
2023-07-06T07:07:44.489Z,95143.00
2023-07-06T07:08:45.296Z,95141.00
2023-07-06T07:09:44.585Z,95139.00
2023-07-06T07:10:44.630Z,95141.00
2023-07-06T07:11:44.717Z,95139.00
2023-07-06T07:12:44.808Z,95141.00
2023-07-06T07:13:44.934Z,95141.00
2023-07-06T07:14:44.921Z,95143.00
2023-07-06T07:15:44.984Z,95141.00
2023-07-06T07:16:45.366Z,95141.00
2023-07-06T07:17:45.118Z,95143.00
2023-07-06T07:18:45.169Z,95143.00
2023-07-06T07:19:47.191Z,95143.00
2023-07-06T07:20:45.215Z,95143.00
2023-07-06T07:21:45.300Z,95145.00
2023-07-06T07:22:45.189Z,95145.00
2023-07-06T07:23:45.193Z,95151.00
2023-07-06T07:24:45.324Z,95145.00
2023-07-06T07:25:45.205Z,95147.00
2023-07-06T07:26:45.154Z,95147.00
2023-07-06T07:27:45.150Z,95143.00
2023-07-06T07:28:45.371Z,95143.00
2023-07-06T07:29:45.148Z,95145.00
2023-07-06T07:30:45.119Z,95143.00
2023-07-06T07:31:45.174Z,95143.00
2023-07-06T07:32:45.238Z,95143.00
2023-07-06T07:33:45.171Z,95145.00
2023-07-06T07:34:45.180Z,95143.00
2023-07-06T07:35:45.109Z,95141.00
2023-07-06T07:36:45.129Z,95141.00
2023-07-06T07:37:45.108Z,95141.00
2023-07-06T07:38:45.122Z,95145.00
2023-07-06T07:39:45.105Z,95145.00
2023-07-06T07:40:45.317Z,95149.00
2023-07-06T07:41:45.114Z,95147.00
2023-07-06T07:42:45.067Z,95145.00
2023-07-06T07:43:45.429Z,95145.00
2023-07-06T07:44:45.074Z,95143.00
2023-07-06T07:45:45.083Z,95139.00
2023-07-06T07:46:45.066Z,95143.00
2023-07-06T07:47:45.377Z,95141.00
2023-07-06T07:48:45.342Z,95143.00
2023-07-06T07:49:45.070Z,95141.00
2023-07-06T07:50:45.013Z,95143.00
2023-07-06T07:51:45.034Z,95143.00
2023-07-06T07:52:45.088Z,95141.00
2023-07-06T07:53:44.999Z,95143.00
2023-07-06T07:54:44.992Z,95137.00
2023-07-06T07:55:44.999Z,95135.00
2023-07-06T07:56:45.012Z,95137.00
2023-07-06T07:57:45.025Z,95135.00
2023-07-06T07:58:44.987Z,95135.00
2023-07-06T07:59:44.965Z,95139.00
2023-07-06T08:00:45.037Z,95139.00
2023-07-06T08:01:44.960Z,95139.00
2023-07-06T08:02:45.049Z,95141.00
2023-07-06T08:03:45.342Z,95137.00
2023-07-06T08:05:45.027Z,95139.00
2023-07-06T08:06:45.084Z,95135.00
2023-07-06T08:07:45.181Z,95135.00
2023-07-06T08:08:45.240Z,95133.00
2023-07-06T08:09:45.549Z,95133.00
2023-07-06T08:10:45.306Z,95133.00
2023-07-06T08:11:45.374Z,95133.00
2023-07-06T08:12:45.530Z,95123.00
2023-07-06T08:13:45.432Z,95123.00
2023-07-06T08:14:45.446Z,95121.00
2023-07-06T08:15:45.487Z,95117.00
2023-07-06T08:16:45.410Z,95117.00
2023-07-06T08:17:45.398Z,95117.00
2023-07-06T08:18:45.471Z,95117.00
2023-07-06T08:20:17.715Z,95121.00
2023-07-06T08:21:01.134Z,95121.00
2023-07-06T08:22:46.466Z,95117.00
2023-07-06T08:23:45.505Z,95117.00
2023-07-06T08:24:45.511Z,95114.00
2023-07-06T08:25:45.528Z,95112.00
2023-07-06T08:26:45.445Z,95110.00
2023-07-06T08:27:45.470Z,95112.00
2023-07-06T08:28:45.435Z,95110.00
2023-07-06T08:29:45.446Z,95108.00
2023-07-06T08:30:45.443Z,95106.00
2023-07-06T08:31:45.477Z,95106.00
2023-07-06T08:32:45.512Z,95102.00
2023-07-06T08:33:46.388Z,95102.00
2023-07-06T08:34:45.415Z,95102.00
2023-07-06T08:35:45.389Z,95098.00
2023-07-06T08:36:45.390Z,95096.00
2023-07-06T08:37:45.393Z,95096.00
2023-07-06T08:38:45.435Z,95098.00
2023-07-06T08:39:45.331Z,95100.00
2023-07-06T08:40:45.434Z,95100.00
2023-07-06T08:41:45.475Z,95102.00
2023-07-06T08:42:45.329Z,95102.00
2023-07-06T08:43:45.401Z,95104.00
2023-07-06T08:44:45.340Z,95102.00
2023-07-06T08:45:45.367Z,95104.00
2023-07-06T08:46:45.463Z,95104.00
2023-07-06T08:47:45.383Z,95102.00
2023-07-06T08:48:45.363Z,95104.00
2023-07-06T08:49:45.606Z,95102.00
2023-07-06T08:50:45.613Z,95104.00
2023-07-06T08:51:45.283Z,95102.00
2023-07-06T08:52:45.723Z,95102.00
2023-07-06T08:53:45.285Z,95100.00
2023-07-06T08:54:45.301Z,95096.00
2023-07-06T08:55:45.409Z,95092.00
2023-07-06T08:56:45.241Z,95092.00
2023-07-06T08:57:45.259Z,95090.00
2023-07-06T08:58:45.215Z,95086.00
2023-07-06T08:59:45.224Z,95086.00
2023-07-06T09:00:45.241Z,95088.00
2023-07-06T09:01:45.333Z,95084.00
2023-07-06T09:02:45.370Z,95082.00
2023-07-06T09:03:45.395Z,95080.00
2023-07-06T09:04:45.221Z,95076.00
2023-07-06T09:05:45.165Z,95078.00
2023-07-06T09:06:45.176Z,95078.00
2023-07-06T09:07:45.190Z,95076.00
2023-07-06T09:08:46.989Z,95076.00
2023-07-06T09:09:45.367Z,95076.00
2023-07-06T09:10:45.446Z,95072.00
2023-07-06T09:11:45.444Z,95070.00
2023-07-06T09:12:45.541Z,95072.00
2023-07-06T09:13:45.565Z,95068.00
2023-07-06T09:14:45.654Z,95068.00
2023-07-06T09:15:45.616Z,95066.00
2023-07-06T09:16:45.666Z,95064.00
2023-07-06T09:17:45.807Z,95064.00
2023-07-06T09:18:46.017Z,95066.00
2023-07-06T09:19:45.797Z,95064.00
2023-07-06T09:20:46.148Z,95068.00
2023-07-06T09:21:45.783Z,95066.00
2023-07-06T09:22:45.920Z,95064.00
2023-07-06T09:23:45.946Z,95064.00
2023-07-06T09:24:45.961Z,95063.00
2023-07-06T09:25:46.024Z,95063.00
2023-07-06T09:26:46.095Z,95061.00
2023-07-06T09:27:46.231Z,95063.00
2023-07-06T09:28:46.148Z,95059.00
2023-07-06T09:29:46.244Z,95059.00
2023-07-06T09:30:46.286Z,95059.00
2023-07-06T09:31:46.324Z,95057.00
2023-07-06T09:32:46.398Z,95057.00
2023-07-06T09:33:46.884Z,95059.00
2023-07-06T09:34:46.731Z,95055.00
2023-07-06T09:35:46.419Z,95055.00
2023-07-06T09:36:46.725Z,95051.00
2023-07-06T09:37:46.511Z,95051.00
2023-07-06T09:38:46.460Z,95047.00
2023-07-06T09:39:47.349Z,95045.00
2023-07-06T09:40:46.532Z,95047.00
2023-07-06T09:41:46.541Z,95047.00
2023-07-06T09:42:46.659Z,95045.00
2023-07-06T09:43:46.677Z,95043.00
2023-07-06T09:44:46.661Z,95043.00
2023-07-06T09:45:46.693Z,95045.00
2023-07-06T09:46:47.042Z,95043.00
2023-07-06T09:47:46.816Z,95039.00
2023-07-06T09:48:46.707Z,95041.00
2023-07-06T09:49:46.801Z,95039.00
2023-07-06T09:50:46.810Z,95039.00
2023-07-06T09:51:47.226Z,95039.00
2023-07-06T09:52:46.846Z,95033.00
2023-07-06T09:53:46.841Z,95033.00
2023-07-06T09:54:47.247Z,95031.00
2023-07-06T09:55:46.951Z,95031.00
2023-07-06T09:56:46.910Z,95031.00
2023-07-06T09:57:47.048Z,95029.00
2023-07-06T09:58:47.076Z,95029.00
2023-07-06T09:59:47.094Z,95029.00
2023-07-06T10:00:47.098Z,95027.00
2023-07-06T10:01:47.194Z,95027.00
2023-07-06T10:02:47.320Z,95029.00
2023-07-06T10:03:47.226Z,95027.00
2023-07-06T10:04:47.247Z,95023.00
2023-07-06T10:05:47.743Z,95023.00
2023-07-06T10:06:47.445Z,95019.00
2023-07-06T10:07:47.625Z,95021.00
2023-07-06T10:08:47.450Z,95021.00
2023-07-06T10:09:47.489Z,95019.00
2023-07-06T10:10:47.575Z,95017.00
2023-07-06T10:11:47.998Z,95015.00
2023-07-06T10:12:47.538Z,95015.00
2023-07-06T10:13:47.653Z,95012.00
2023-07-06T10:14:47.652Z,95010.00
2023-07-06T10:15:47.578Z,95010.00
2023-07-06T10:16:47.756Z,95004.00
2023-07-06T10:17:47.779Z,95006.00
2023-07-06T10:18:47.700Z,95006.00
2023-07-06T10:19:47.759Z,95000.00
2023-07-06T10:20:47.742Z,95000.00
2023-07-06T10:21:47.734Z,94998.00
2023-07-06T10:22:47.751Z,94996.00
2023-07-06T10:23:48.158Z,94998.00
2023-07-06T10:24:47.856Z,94994.00
2023-07-06T10:25:47.772Z,94996.00
2023-07-06T10:26:47.814Z,94994.00
2023-07-06T10:27:48.011Z,94994.00
2023-07-06T10:28:47.808Z,94996.00
2023-07-06T10:29:48.349Z,94996.00
2023-07-06T10:30:47.787Z,94996.00
2023-07-06T10:31:47.884Z,94996.00
2023-07-06T10:32:47.964Z,94992.00
2023-07-06T10:33:48.033Z,94994.00
2023-07-06T10:34:48.235Z,94988.00
2023-07-06T10:35:47.993Z,94986.00
2023-07-06T10:36:48.038Z,94988.00
2023-07-06T10:37:48.045Z,94988.00
2023-07-06T10:38:48.160Z,94986.00
2023-07-06T10:39:48.168Z,94990.00
2023-07-06T10:40:48.074Z,94994.00
2023-07-06T10:41:48.417Z,94992.00
2023-07-06T10:42:48.181Z,94992.00
2023-07-06T10:43:48.105Z,94988.00
2023-07-06T10:44:48.243Z,94988.00
2023-07-06T10:45:48.254Z,94986.00
2023-07-06T10:46:48.141Z,94986.00
2023-07-06T10:47:48.221Z,94988.00
2023-07-06T10:48:48.213Z,94994.00
2023-07-06T10:49:48.220Z,94988.00
2023-07-06T10:50:48.227Z,94990.00
2023-07-06T10:51:48.258Z,94988.00
2023-07-06T10:52:48.356Z,94992.00
2023-07-06T10:53:48.264Z,94992.00
2023-07-06T10:54:48.308Z,94988.00
2023-07-06T10:55:48.381Z,94986.00
2023-07-06T10:56:48.373Z,94988.00
2023-07-06T10:57:48.410Z,94984.00
2023-07-06T10:58:48.281Z,94986.00
2023-07-06T10:59:48.329Z,94980.00
2023-07-06T11:00:48.304Z,94976.00
2023-07-06T11:01:48.472Z,94970.00
2023-07-06T11:02:48.468Z,94970.00
2023-07-06T11:03:48.448Z,94966.00
2023-07-06T11:04:48.432Z,94966.00
2023-07-06T11:05:48.841Z,94968.00
2023-07-06T11:06:48.443Z,94968.00
2023-07-06T11:07:48.461Z,94964.00
2023-07-06T11:08:48.493Z,94966.00
2023-07-06T11:09:48.589Z,94964.00
2023-07-06T11:10:48.624Z,94962.00
2023-07-06T11:11:48.697Z,94962.00
2023-07-06T11:12:49.784Z,94964.00
2023-07-06T11:13:48.746Z,94966.00
2023-07-06T11:14:48.724Z,94966.00
2023-07-06T11:15:49.059Z,94966.00
2023-07-06T11:16:48.888Z,94972.00
2023-07-06T11:17:48.996Z,94970.00
2023-07-06T11:18:48.934Z,94968.00
2023-07-06T11:19:48.994Z,94966.00
2023-07-06T11:20:49.002Z,94968.00
2023-07-06T11:21:49.060Z,94966.00
2023-07-06T11:22:49.132Z,94974.00
2023-07-06T11:23:49.175Z,94970.00
2023-07-06T11:24:49.284Z,94972.00
2023-07-06T11:25:49.289Z,94970.00
2023-07-06T11:26:49.388Z,94972.00
2023-07-06T11:27:49.410Z,94970.00
2023-07-06T11:28:49.456Z,94968.00
2023-07-06T11:29:49.568Z,94970.00
2023-07-06T11:30:49.556Z,94970.00
2023-07-06T11:31:49.753Z,94970.00
2023-07-06T11:32:49.690Z,94972.00
2023-07-06T11:33:49.656Z,94970.00
2023-07-06T11:34:49.733Z,94964.00
2023-07-06T11:35:49.704Z,94970.00
2023-07-06T11:36:49.781Z,94970.00
2023-07-06T11:37:58.359Z,94964.00
2023-07-06T11:38:50.811Z,94964.00
2023-07-06T11:39:49.814Z,94966.00
2023-07-06T11:40:49.742Z,94964.00
2023-07-06T11:41:49.837Z,94966.00
2023-07-06T11:42:49.757Z,94964.00
2023-07-06T11:43:49.747Z,94964.00
2023-07-06T11:44:50.091Z,94964.00
2023-07-06T11:45:49.748Z,94966.00
2023-07-06T11:46:49.754Z,94966.00